createdAt,value
2023-03-18T00:01:36.000Z,63.72
2023-03-18T00:04:24.295Z,63.36
2023-03-18T00:07:10.767Z,63.75
2023-03-18T00:09:56.623Z,63.78
2023-03-18T00:12:43.142Z,64.05
2023-03-18T00:15:28.951Z,63.29
2023-03-18T00:18:14.334Z,63.75
2023-03-18T00:21:01.161Z,63.70
2023-03-18T00:23:48.814Z,64.02
2023-03-18T00:26:34.392Z,64.29
2023-03-18T00:29:19.849Z,63.80
2023-03-18T00:32:05.517Z,64.30
2023-03-18T00:34:50.786Z,64.45
2023-03-18T00:37:36.704Z,64.39
2023-03-18T00:40:30.974Z,64.60
2023-03-18T00:43:16.483Z,64.50
2023-03-18T00:46:02.063Z,64.15
2023-03-18T00:48:48.475Z,64.28
2023-03-18T00:51:35.650Z,64.13
2023-03-18T00:54:22.484Z,64.46
2023-03-18T00:57:08.067Z,64.14
2023-03-18T00:59:54.095Z,64.04
2023-03-18T01:02:39.550Z,64.57
2023-03-18T01:05:25.221Z,64.05
2023-03-18T01:08:10.836Z,64.46
2023-03-18T01:10:57.589Z,64.22
2023-03-18T01:13:42.952Z,64.93
2023-03-18T01:16:30.152Z,64.73
2023-03-18T01:19:16.059Z,64.81
2023-03-18T01:22:03.191Z,65.32
2023-03-18T01:24:52.869Z,65.45
2023-03-18T01:27:44.828Z,65.07
2023-03-18T01:30:31.427Z,64.71
2023-03-18T01:33:17.903Z,65.03
2023-03-18T01:36:05.066Z,64.50
2023-03-18T01:38:51.959Z,64.22
2023-03-18T01:41:37.730Z,64.53
2023-03-18T01:44:25.654Z,64.39
2023-03-18T01:47:16.597Z,64.89
2023-03-18T01:50:08.242Z,65.12
2023-03-18T01:53:05.002Z,65.22
2023-03-18T01:55:52.188Z,65.52
2023-03-18T01:58:42.057Z,65.50
2023-03-18T02:01:34.747Z,65.24
2023-03-18T02:04:27.383Z,65.80
2023-03-18T02:07:35.953Z,65.73
2023-03-18T02:10:26.243Z,65.98
2023-03-18T02:13:16.080Z,65.43
2023-03-18T02:16:15.711Z,65.06
2023-03-18T02:19:09.673Z,65.83
2023-03-18T02:22:08.801Z,65.16
2023-03-18T02:24:54.850Z,65.54
2023-03-18T02:27:43.259Z,65.22
2023-03-18T02:30:34.310Z,65.07
2023-03-18T02:33:25.986Z,64.97
2023-03-18T02:36:18.674Z,66.07
2023-03-18T02:39:05.335Z,65.70
2023-03-18T02:41:50.710Z,65.99
2023-03-18T02:44:41.682Z,66.75
2023-03-18T02:47:51.895Z,66.67
2023-03-18T02:50:37.160Z,66.56
2023-03-18T02:53:22.616Z,65.93
2023-03-18T02:56:09.189Z,66.23
2023-03-18T02:58:55.709Z,66.25
2023-03-18T03:01:44.048Z,65.48
2023-03-18T03:04:29.341Z,65.72
2023-03-18T03:07:14.701Z,65.18
2023-03-18T03:10:06.789Z,64.78
2023-03-18T03:12:52.823Z,65.16
2023-03-18T03:15:40.823Z,64.70
2023-03-18T03:18:26.833Z,65.32
2023-03-18T03:21:14.260Z,65.49
2023-03-18T03:24:04.017Z,64.63
2023-03-18T03:26:49.352Z,64.91
2023-03-18T03:29:34.750Z,65.16
2023-03-18T03:32:20.681Z,65.29
2023-03-18T03:35:09.414Z,64.82
2023-03-18T03:37:55.807Z,64.84
2023-03-18T03:40:42.351Z,65.04
2023-03-18T03:43:27.853Z,65.23
2023-03-18T03:46:13.466Z,64.52
2023-03-18T03:48:59.197Z,63.99
2023-03-18T03:51:45.016Z,64.11
2023-03-18T03:54:30.729Z,64.52
2023-03-18T03:57:17.502Z,64.47
2023-03-18T04:00:05.312Z,63.76
2023-03-18T04:03:00.619Z,63.93
2023-03-18T04:05:47.733Z,64.17
2023-03-18T04:08:36.311Z,65.17
2023-03-18T04:11:22.532Z,64.52
2023-03-18T04:14:08.157Z,65.05
2023-03-18T04:16:58.048Z,64.88
2023-03-18T04:19:43.852Z,65.22
2023-03-18T04:22:29.680Z,65.34
2023-03-18T04:25:15.623Z,64.62
2023-03-18T04:28:01.095Z,65.19
2023-03-18T04:30:48.258Z,64.93
2023-03-18T04:33:35.965Z,65.42
2023-03-18T04:36:21.627Z,65.80
2023-03-18T04:39:09.612Z,65.65
2023-03-18T04:41:57.224Z,65.51
2023-03-18T04:44:43.873Z,65.21
2023-03-18T04:47:30.037Z,64.76
2023-03-18T04:50:15.827Z,64.85
2023-03-18T04:53:01.913Z,65.36
2023-03-18T04:55:51.638Z,65.01
2023-03-18T04:58:41.361Z,65.50
2023-03-18T05:01:31.002Z,64.45
2023-03-18T05:04:16.935Z,64.46
2023-03-18T05:07:07.359Z,64.32
2023-03-18T05:09:57.143Z,63.74
2023-03-18T05:12:43.555Z,64.05
2023-03-18T05:15:31.907Z,62.92
2023-03-18T05:18:18.788Z,63.43
2023-03-18T05:21:10.137Z,62.64
2023-03-18T05:23:57.334Z,62.35
2023-03-18T05:26:43.387Z,62.23
2023-03-18T05:29:31.399Z,61.55
2023-03-18T05:32:47.588Z,60.83
2023-03-18T05:35:34.719Z,60.28
2023-03-18T05:38:20.683Z,59.83
2023-03-18T05:41:07.242Z,59.48
2023-03-18T05:43:57.327Z,59.39
2023-03-18T05:46:44.334Z,59.12
2023-03-18T05:49:36.309Z,58.90
2023-03-18T05:52:49.440Z,58.25
2023-03-18T05:55:40.558Z,57.67
2023-03-18T05:58:31.070Z,57.44
2023-03-18T06:01:31.560Z,56.88
2023-03-18T06:04:19.342Z,56.80
2023-03-18T06:07:06.148Z,56.16
2023-03-18T06:09:53.316Z,55.56
2023-03-18T06:12:39.888Z,55.01
2023-03-18T06:15:25.815Z,55.20
2023-03-18T06:18:11.737Z,55.17
2023-03-18T06:20:57.360Z,54.44
2023-03-18T06:23:43.258Z,53.83
2023-03-18T06:26:29.311Z,53.35
2023-03-18T06:29:15.179Z,53.32
2023-03-18T06:32:04.055Z,52.31
2023-03-18T06:34:49.874Z,53.07
2023-03-18T06:37:35.573Z,52.90
2023-03-18T06:40:22.370Z,53.19
2023-03-18T06:43:09.109Z,53.04
2023-03-18T06:45:56.845Z,53.23
2023-03-18T06:48:44.680Z,52.99
2023-03-18T06:51:36.699Z,52.71
2023-03-18T06:54:22.429Z,52.60
2023-03-18T06:57:08.649Z,52.55
2023-03-18T06:59:55.073Z,52.27
2023-03-18T07:02:42.034Z,52.88
2023-03-18T07:05:30.908Z,53.03
2023-03-18T07:08:16.961Z,52.61
2023-03-18T07:11:04.326Z,52.82
2023-03-18T07:13:51.283Z,52.99
2023-03-18T07:16:46.500Z,53.64
2023-03-18T07:19:33.639Z,52.71
2023-03-18T07:22:19.836Z,52.34
2023-03-18T07:25:11.090Z,52.07
2023-03-18T07:28:00.464Z,51.72
2023-03-18T07:30:46.997Z,51.21
2023-03-18T07:33:33.252Z,51.21
2023-03-18T07:36:19.895Z,51.03
2023-03-18T07:39:10.127Z,50.79
2023-03-18T07:41:55.660Z,50.33
2023-03-18T07:44:47.509Z,51.28
2023-03-18T07:47:35.599Z,50.85
2023-03-18T07:50:21.969Z,50.39
2023-03-18T07:53:07.554Z,50.70
2023-03-18T07:55:53.772Z,50.73
2023-03-18T07:58:39.439Z,50.58
2023-03-18T08:01:25.636Z,49.70
2023-03-18T08:04:11.249Z,49.38
2023-03-18T08:06:58.284Z,48.47
2023-03-18T08:09:45.650Z,48.48
2023-03-18T08:12:45.366Z,49.21
2023-03-18T08:15:37.306Z,48.15
2023-03-18T08:18:24.088Z,47.36
2023-03-18T08:21:10.004Z,47.69
2023-03-18T08:23:56.773Z,47.36
2023-03-18T08:26:42.774Z,46.60
2023-03-18T08:30:03.791Z,46.54
2023-03-18T08:32:57.965Z,47.18
2023-03-18T08:35:43.572Z,48.34
2023-03-18T08:38:29.049Z,46.80
2023-03-18T08:42:28.010Z,48.07
2023-03-18T08:45:13.772Z,46.32
2023-03-18T08:48:00.387Z,45.57
2023-03-18T08:50:47.058Z,45.67
2023-03-18T08:53:32.881Z,45.20
2023-03-18T08:56:18.743Z,45.75
2023-03-18T08:59:04.594Z,45.98
2023-03-18T09:01:50.384Z,46.73
2023-03-18T09:04:36.895Z,46.23
2023-03-18T09:07:22.544Z,47.01
2023-03-18T09:10:09.602Z,44.74
2023-03-18T09:12:55.920Z,45.08
2023-03-18T09:15:42.261Z,45.90
2023-03-18T09:18:28.317Z,44.72
2023-03-18T09:21:14.363Z,44.93
2023-03-18T09:24:00.464Z,45.96
2023-03-18T09:26:47.951Z,46.56
2023-03-18T09:29:33.797Z,46.17
2023-03-18T09:32:19.667Z,46.16
2023-03-18T09:35:06.771Z,45.40
2023-03-18T09:37:54.069Z,45.55
2023-03-18T09:40:52.115Z,44.36
2023-03-18T09:43:41.128Z,45.70
2023-03-18T09:46:37.264Z,46.52
2023-03-18T09:49:28.866Z,46.35
2023-03-18T09:52:38.109Z,46.58
2023-03-18T09:55:30.642Z,45.10
2023-03-18T09:58:37.357Z,45.79
2023-03-18T10:01:26.504Z,47.00
2023-03-18T10:04:23.721Z,47.99
2023-03-18T10:07:23.154Z,47.28
2023-03-18T10:10:16.093Z,47.62
2023-03-18T10:13:06.431Z,47.51
2023-03-18T10:15:57.564Z,46.86
2023-03-18T10:18:45.213Z,46.94
2023-03-18T10:21:49.344Z,47.01
2023-03-18T10:24:48.835Z,46.58
2023-03-18T10:27:38.347Z,47.90
2023-03-18T10:30:57.815Z,48.40
2023-03-18T10:33:51.920Z,47.27
2023-03-18T10:36:51.118Z,47.87
2023-03-18T10:39:39.384Z,47.73
2023-03-18T10:42:32.085Z,47.41
2023-03-18T10:45:27.426Z,48.38
2023-03-18T10:48:38.779Z,48.55
2023-03-18T10:51:33.179Z,48.02
2023-03-18T10:54:32.908Z,48.43
2023-03-18T10:57:21.993Z,47.96
2023-03-18T11:00:18.736Z,47.33
2023-03-18T11:03:05.735Z,47.28
2023-03-18T11:05:53.374Z,47.45
2023-03-18T11:08:41.073Z,47.57
2023-03-18T11:11:33.426Z,47.18
2023-03-18T11:14:22.941Z,47.63
2023-03-18T11:17:31.184Z,47.98
2023-03-18T11:20:17.063Z,47.59
2023-03-18T11:23:12.892Z,47.55
2023-03-18T11:26:02.957Z,48.39
2023-03-18T11:28:48.956Z,47.18
2023-03-18T11:31:48.535Z,47.98
2023-03-18T11:34:35.506Z,47.38
2023-03-18T11:37:21.281Z,47.35
2023-03-18T11:40:20.125Z,48.61
2023-03-18T11:43:18.828Z,47.63
2023-03-18T11:46:07.149Z,47.68
2023-03-18T11:48:54.294Z,47.67
2023-03-18T11:51:46.205Z,47.53
2023-03-18T11:54:40.981Z,48.47
2023-03-18T11:57:30.227Z,48.03
2023-03-18T12:00:26.302Z,48.66
2023-03-18T12:03:43.303Z,48.16
2023-03-18T12:06:31.785Z,47.86
2023-03-18T12:09:47.363Z,48.00
2023-03-18T12:13:07.243Z,47.73
2023-03-18T12:16:04.181Z,48.10
2023-03-18T12:19:25.179Z,48.27
2023-03-18T12:22:39.899Z,48.95
2023-03-18T12:26:02.098Z,48.02
2023-03-18T12:29:11.445Z,49.42
2023-03-18T12:32:23.212Z,49.76
2023-03-18T12:35:42.396Z,50.24
2023-03-18T12:39:12.747Z,50.01
2023-03-18T12:42:13.559Z,50.33
2023-03-18T12:45:05.678Z,49.33
2023-03-18T12:48:00.864Z,49.61
2023-03-18T12:51:05.059Z,49.17
2023-03-18T12:53:55.717Z,49.00
2023-03-18T12:56:45.774Z,48.28
2023-03-18T12:59:42.467Z,48.48
2023-03-18T13:03:07.269Z,48.12
2023-03-18T13:05:57.396Z,48.51
2023-03-18T13:08:49.767Z,48.40
2023-03-18T13:12:02.247Z,49.01
2023-03-18T13:14:58.356Z,50.00
2023-03-18T13:17:46.490Z,49.04
2023-03-18T13:20:38.729Z,49.36
2023-03-18T13:23:34.125Z,49.81
2023-03-18T13:26:44.014Z,49.60
2023-03-18T13:29:36.335Z,49.28
2023-03-18T13:32:22.956Z,49.48
2023-03-18T13:35:23.454Z,49.93
2023-03-18T13:38:33.599Z,50.44
2023-03-18T13:41:46.764Z,50.91
2023-03-18T13:44:47.983Z,51.17
2023-03-18T13:47:37.917Z,51.11
2023-03-18T13:50:42.472Z,52.65
2023-03-18T13:53:31.793Z,52.76
2023-03-18T13:56:48.191Z,51.93
2023-03-18T13:59:35.458Z,51.97
2023-03-18T14:02:45.543Z,51.98
2023-03-18T14:05:40.039Z,52.65
2023-03-18T14:08:52.613Z,53.26
2023-03-18T14:11:47.513Z,52.95
2023-03-18T14:14:42.016Z,53.80
2023-03-18T14:18:02.964Z,54.15
2023-03-18T14:20:53.543Z,53.89
2023-03-18T14:23:44.553Z,54.17
2023-03-18T14:26:31.644Z,53.39
2023-03-18T14:29:26.554Z,53.76
2023-03-18T14:32:34.762Z,54.15
2023-03-18T14:35:28.050Z,54.75
2023-03-18T14:38:42.710Z,53.91
2023-03-18T14:41:31.518Z,53.76
2023-03-18T14:44:36.344Z,54.07
2023-03-18T14:47:43.525Z,54.07
2023-03-18T14:50:40.412Z,54.12
2023-03-18T14:53:35.154Z,54.11
2023-03-18T14:56:24.900Z,53.78
2023-03-18T14:59:24.443Z,54.47
2023-03-18T15:02:43.868Z,54.86
2023-03-18T15:05:37.542Z,54.92
2023-03-18T15:08:34.505Z,55.33
2023-03-18T15:11:39.266Z,55.25
2023-03-18T15:14:31.809Z,55.35
2023-03-18T15:17:17.776Z,55.40
2023-03-18T15:20:05.503Z,55.62
2023-03-18T15:22:52.865Z,55.90
2023-03-18T15:25:41.403Z,56.27
2023-03-18T15:28:29.171Z,56.17
2023-03-18T15:31:31.504Z,56.75
2023-03-18T15:34:27.651Z,55.98
2023-03-18T15:37:24.047Z,55.95
2023-03-18T15:40:30.668Z,55.79
2023-03-18T15:43:21.494Z,55.85
2023-03-18T15:46:24.239Z,56.57
2023-03-18T15:49:12.656Z,56.33
2023-03-18T15:52:03.724Z,56.40
2023-03-18T15:54:53.319Z,56.24
2023-03-18T15:57:43.541Z,56.57
2023-03-18T16:00:35.053Z,56.90
2023-03-18T16:03:27.246Z,57.10
2023-03-18T16:06:17.778Z,57.22
2023-03-18T16:09:35.398Z,57.26
2023-03-18T16:12:29.657Z,57.43
2023-03-18T16:15:25.251Z,57.48
2023-03-18T16:18:18.311Z,57.67
2023-03-18T16:21:09.603Z,57.80
2023-03-18T16:23:58.657Z,57.93
2023-03-18T16:26:46.936Z,58.33
2023-03-18T16:29:40.261Z,58.98
2023-03-18T16:32:28.710Z,58.48
2023-03-18T16:35:27.010Z,58.54
2023-03-18T16:38:19.600Z,58.99
2023-03-18T16:41:10.556Z,59.11
2023-03-18T16:44:00.370Z,59.18
2023-03-18T16:47:01.629Z,59.33
2023-03-18T16:49:48.767Z,59.55
2023-03-18T16:52:35.278Z,59.70
2023-03-18T16:55:21.366Z,59.67
2023-03-18T16:58:15.134Z,59.97
2023-03-18T17:01:05.612Z,59.87
2023-03-18T17:03:52.057Z,60.02
2023-03-18T17:06:38.276Z,60.47
2023-03-18T17:09:25.734Z,60.47
2023-03-18T17:12:12.098Z,61.06
2023-03-18T17:15:08.865Z,61.11
2023-03-18T17:17:58.147Z,60.95
2023-03-18T17:20:45.700Z,60.76
2023-03-18T17:23:33.661Z,61.61
2023-03-18T17:26:19.996Z,61.63
2023-03-18T17:29:06.150Z,61.82
2023-03-18T17:31:58.127Z,62.12
2023-03-18T17:34:47.378Z,62.15
2023-03-18T17:37:34.530Z,61.95
2023-03-18T17:40:26.555Z,62.23
2023-03-18T17:43:25.997Z,62.44
2023-03-18T17:46:11.922Z,62.55
2023-03-18T17:48:57.429Z,62.79
2023-03-18T17:51:43.658Z,62.22
2023-03-18T17:54:31.544Z,62.84
2023-03-18T17:57:17.700Z,62.69
2023-03-18T18:00:03.748Z,62.46
2023-03-18T18:02:54.837Z,62.58
2023-03-18T18:05:40.278Z,62.55
2023-03-18T18:08:26.986Z,62.47
2023-03-18T18:11:18.971Z,62.64
2023-03-18T18:14:25.044Z,62.76
2023-03-18T18:17:15.072Z,63.30
2023-03-18T18:20:00.590Z,63.08
2023-03-18T18:22:53.199Z,63.24
2023-03-18T18:25:38.782Z,63.13
2023-03-18T18:28:29.432Z,63.18
2023-03-18T18:31:17.734Z,63.38
2023-03-18T18:34:04.893Z,63.94
2023-03-18T18:36:51.471Z,63.85
2023-03-18T18:39:37.352Z,63.77
2023-03-18T18:42:22.901Z,64.18
2023-03-18T18:45:14.932Z,64.29
2023-03-18T18:48:00.335Z,64.07
2023-03-18T18:50:46.360Z,64.39
2023-03-18T18:53:36.640Z,65.03
2023-03-18T18:56:34.015Z,64.53
2023-03-18T18:59:23.331Z,64.77
2023-03-18T19:02:36.165Z,64.81
2023-03-18T19:05:22.093Z,64.94
2023-03-18T19:08:20.648Z,65.42
2023-03-18T19:11:10.080Z,65.36
2023-03-18T19:14:19.675Z,65.12
2023-03-18T19:17:06.174Z,65.22
2023-03-18T19:19:53.126Z,65.37
2023-03-18T19:22:38.829Z,65.52
2023-03-18T19:25:25.935Z,65.91
2023-03-18T19:28:20.859Z,65.84
2023-03-18T19:31:09.558Z,65.82
2023-03-18T19:33:55.354Z,65.54
2023-03-18T19:36:41.845Z,65.81
2023-03-18T19:39:28.406Z,66.16
2023-03-18T19:42:16.673Z,65.87
2023-03-18T19:45:02.649Z,66.11
2023-03-18T19:47:48.868Z,66.14
2023-03-18T19:50:35.318Z,66.31
2023-03-18T19:53:28.132Z,66.38
2023-03-18T19:56:26.605Z,66.37
2023-03-18T19:59:20.966Z,66.16
2023-03-18T20:02:22.637Z,66.17
2023-03-18T20:05:20.125Z,66.71
2023-03-18T20:08:06.378Z,66.57
2023-03-18T20:10:51.952Z,66.21
2023-03-18T20:13:37.533Z,66.63
2023-03-18T20:16:24.850Z,66.23
2023-03-18T20:19:14.626Z,66.27
2023-03-18T20:22:00.716Z,65.97
2023-03-18T20:24:46.917Z,66.28
2023-03-18T20:27:32.631Z,66.29
2023-03-18T20:30:26.036Z,66.12
2023-03-18T20:33:16.471Z,66.29
2023-03-18T20:36:18.671Z,66.82
2023-03-18T20:39:06.125Z,66.74
2023-03-18T20:41:52.020Z,66.59
2023-03-18T20:44:37.632Z,66.75
2023-03-18T20:47:23.144Z,66.99
2023-03-18T20:50:13.947Z,67.04
2023-03-18T20:53:24.034Z,67.11
2023-03-18T20:56:12.257Z,67.14
2023-03-18T20:58:58.036Z,67.64
2023-03-18T21:01:43.926Z,67.54
2023-03-18T21:04:31.032Z,67.64
2023-03-18T21:07:16.657Z,67.83
2023-03-18T21:10:02.088Z,68.15
2023-03-18T21:12:48.437Z,68.36
2023-03-18T21:15:34.202Z,68.41
2023-03-18T21:18:19.893Z,68.53
2023-03-18T21:21:05.586Z,68.80
2023-03-18T21:23:52.470Z,68.88
2023-03-18T21:26:41.945Z,69.18
2023-03-18T21:29:27.825Z,69.15
2023-03-18T21:32:22.154Z,69.19
2023-03-18T21:35:17.150Z,69.55
2023-03-18T21:38:03.068Z,69.80
2023-03-18T21:40:53.176Z,69.75
2023-03-18T21:43:43.728Z,70.11
2023-03-18T21:46:30.683Z,70.30
2023-03-18T21:49:16.765Z,70.08
2023-03-18T21:52:02.570Z,70.25
2023-03-18T21:54:48.413Z,69.96
2023-03-18T21:57:34.119Z,69.80
2023-03-18T22:00:22.533Z,70.16
2023-03-18T22:03:15.816Z,69.87
2023-03-18T22:06:01.681Z,70.03
2023-03-18T22:08:47.807Z,69.99
2023-03-18T22:11:33.418Z,70.21
2023-03-18T22:14:18.947Z,70.32
2023-03-18T22:17:29.065Z,70.26
2023-03-18T22:20:21.754Z,70.07
2023-03-18T22:23:18.667Z,70.50
2023-03-18T22:26:04.520Z,70.55
2023-03-18T22:28:50.904Z,70.36
2023-03-18T22:31:37.386Z,70.29
2023-03-18T22:34:23.619Z,70.23
2023-03-18T22:37:25.274Z,70.08
2023-03-18T22:40:26.321Z,70.18
2023-03-18T22:43:35.950Z,70.22
2023-03-18T22:46:21.720Z,70.43
2023-03-18T22:49:08.337Z,70.85
2023-03-18T22:51:53.573Z,71.01
2023-03-18T22:54:39.204Z,71.05
2023-03-18T22:57:28.122Z,71.02
2023-03-18T23:00:22.232Z,71.25
2023-03-18T23:03:35.081Z,71.43
2023-03-18T23:06:24.022Z,71.35
2023-03-18T23:09:09.730Z,71.81
2023-03-18T23:11:55.708Z,71.62
2023-03-18T23:14:41.883Z,71.85
2023-03-18T23:17:28.361Z,72.05
2023-03-18T23:20:16.738Z,72.23
2023-03-18T23:23:02.398Z,72.42
2023-03-18T23:25:49.646Z,72.45
2023-03-18T23:28:44.087Z,72.43
2023-03-18T23:31:31.791Z,72.67
2023-03-18T23:34:17.278Z,72.64
2023-03-18T23:37:02.688Z,72.66
2023-03-18T23:39:48.117Z,72.93
2023-03-18T23:42:35.685Z,72.82
2023-03-18T23:45:21.630Z,72.99
2023-03-18T23:48:07.464Z,72.92
2023-03-18T23:50:53.762Z,73.38
2023-03-18T23:53:39.565Z,73.40
2023-03-18T23:56:25.047Z,73.30
2023-03-18T23:59:10.496Z,73.50
